Gilman, IA (50106)

7:29 PM CDT on April 21, 2015 (GMT -0500)
Grinnell Weather.com | | Change Station
CLOSE
Current Station
Personal Weather Station
Location: Grinnell, IA
Elevation: 1014 ft
Nearby Weather Stations

Elev 1014 ft 41.75 °N, 92.70 °W | Updated 1 second ago

Mostly Cloudy
Mostly Cloudy
49.6 °F
Feels Like 47 °F
N
6.5
Wind Variable Wind from WNW
Gusts 10.0 mph

Today
High -- | Low -- °F
--% Chance of Precip.
Yesterday
High -- | Low -- °F
Precip. -- in
6:22 AM 7:58 PM
Waxing Crescent, 13% visible
Pressure 29.74 in
Visibility 10.0 miles
Clouds Scattered Clouds 12000 ft
Windchill 47 °F
Dew Point 30 °F
Humidity 47%
Rainfall 0.00 in
Snow Depth Not available.
UV 0.0 out of 12
Pollen 11.10 out of 12
Air Quality Not available.
Flu Activity Local Activity
METAR KGGI 220015Z AUTO 28012G17KT 10SM SCT120 10/M05 A2974 RMK AO2 T01021046

More Conditions Fewer Conditions

Pressure 29.74 in
Visibility 10.0 miles
Clouds Scattered Clouds 12000 ft
Windchill 47 °F
Dew Point 30 °F
Humidity 47%
Rainfall 0.00 in
Snow Depth Not available.
UV 0.0 out of 12
Pollen 11.10 out of 12
Air Quality Not available.
Flu Activity Local Activity
METAR KGGI 220015Z AUTO 28012G17KT 10SM SCT120 10/M05 A2974 RMK AO2 T01021046

More Conditions Fewer Conditions

10-Day Weather Forecast

Almanac

Astronomy

Apr. 21, 2015 Rise Set
Actual Time
Civil Twilight
Nautical Twilight
Astronomical Twilight
Moon
Length of Visible Light
Length of Day
Tomorrow will be .
, % of the Moon is Illuminated

Today's Extremes

State Highs State Lows

Community

WunderPhotos

Upload Photos

1,815,588 photos uploaded!

WunderBlogs® & News

Nearby

Air Quality

  Air Quality AQ Index Pollutant
Not available.

Snow Depth

Station Depth Elevation

Earthquake Activity

City Distance Mag. Time & Date
Minimum magnitude displayed is 2.5.

Coastal Water Temperatures

Place Temperature

Stations

Nearby Weather Stations

Station Location Temp. Windchill Dew Point Humidity Wind Precip. Elev Updated Type